Time;durP1;ratioP1;P1;durP2;ratioP2;P2;SDS_P1;SDS_P2;PMS_P1;PMS_P2;Temp;Humidity;BMP_temperature;BMP_pressure;BME280_temperature;BME280_humidity;BME280_pressure;Samples;Min_cycle;Max_cycle;Signal;HPM_P1;HPM_P2
2021/06/12 00:01:12;;;;;;;5.18;4.03;;;16.30;99.90;;;;;;5032703;28;20049;-49
2021/06/12 00:03:38;;;;;;;6.88;4.13;;;16.30;99.90;;;;;;5041511;28;20468;-47
2021/06/12 00:06:05;;;;;;;5.30;4.47;;;16.20;99.90;;;;;;5054726;28;20040;-47
2021/06/12 00:08:31;;;;;;;4.90;4.45;;;16.20;99.90;;;;;;5054848;28;20025;-51
2021/06/12 00:10:56;;;;;;;5.22;4.45;;;16.20;99.90;;;;;;5054680;28;20033;-47
2021/06/12 00:13:23;;;;;;;6.75;4.20;;;16.10;99.90;;;;;;5053812;28;20021;-47
2021/06/12 00:15:48;;;;;;;5.75;3.58;;;16.10;99.90;;;;;;5054570;28;20037;-53
2021/06/12 00:18:14;;;;;;;5.97;3.97;;;16.10;99.90;;;;;;5054532;28;20362;-51
2021/06/12 00:20:40;;;;;;;7.18;3.90;;;16.00;99.90;;;;;;5054408;28;20028;-49
2021/06/12 00:23:06;;;;;;;4.90;3.85;;;16.00;99.90;;;;;;5054678;28;20417;-50
2021/06/12 00:25:32;;;;;;;4.90;4.32;;;16.00;99.90;;;;;;5055594;28;20033;-47
2021/06/12 00:27:59;;;;;;;3.95;3.55;;;16.10;99.90;;;;;;5053689;28;20044;-48
2021/06/12 00:30:25;;;;;;;3.95;3.20;;;16.10;99.90;;;;;;5054125;28;20388;-48
2021/06/12 00:32:52;;;;;;;5.57;4.10;;;16.20;99.90;;;;;;5053222;28;20044;-49
2021/06/12 00:35:18;;;;;;;5.32;4.13;;;16.20;99.90;;;;;;5050471;28;20409;-48
2021/06/12 00:37:44;;;;;;;4.45;3.47;;;16.20;99.90;;;;;;5034496;28;20064;-47
2021/06/12 00:40:12;;;;;;;4.40;3.50;;;16.20;99.90;;;;;;5034222;28;20033;-47
2021/06/12 00:42:38;;;;;;;4.25;3.40;;;16.20;99.90;;;;;;5033476;28;20049;-48
2021/06/12 00:45:09;;;;;;;4.22;3.83;;;16.10;99.90;;;;;;5034115;28;20029;-51
2021/06/12 00:47:35;;;;;;;4.38;3.97;;;16.10;99.90;;;;;;5034166;28;20091;-46
2021/06/12 00:50:02;;;;;;;4.65;3.60;;;16.10;99.90;;;;;;5033834;28;20036;-48
2021/06/12 00:52:27;;;;;;;5.70;4.97;;;16.10;99.90;;;;;;5034004;28;20028;-47
2021/06/12 00:54:53;;;;;;;5.18;4.40;;;16.10;99.90;;;;;;5032718;28;20025;-46
2021/06/12 00:57:19;;;;;;;4.72;3.47;;;16.10;99.90;;;;;;5032924;28;20021;-49
2021/06/12 00:59:45;;;;;;;4.57;3.83;;;16.10;99.90;;;;;;5026337;28;20049;-49
2021/06/12 01:02:10;;;;;;;5.43;3.97;;;16.10;99.90;;;;;;5014128;28;20030;-48
2021/06/12 01:04:36;;;;;;;4.93;3.22;;;16.10;99.90;;;;;;5042525;28;20017;-46
2021/06/12 01:07:01;;;;;;;4.13;3.70;;;16.20;99.90;;;;;;5053729;28;20044;-48
2021/06/12 01:09:28;;;;;;;4.45;3.88;;;16.20;99.90;;;;;;5053234;28;20064;-50
2021/06/12 01:12:25;;;;;;;5.10;4.28;;;16.20;99.90;;;;;;5052269;28;20063;-48
2021/06/12 01:14:56;;;;;;;4.32;3.22;;;16.30;99.90;;;;;;5053419;28;20023;-52
2021/06/12 01:17:24;;;;;;;4.88;3.63;;;16.30;99.90;;;;;;5052020;28;20032;-48
2021/06/12 01:20:14;;;;;;;5.28;4.15;;;16.30;99.90;;;;;;5053605;28;20032;-46
2021/06/12 01:22:45;;;;;;;6.38;4.10;;;16.30;99.90;;;;;;5053550;28;20027;-48
2021/06/12 01:25:48;;;;;;;3.53;3.22;;;16.30;99.90;;;;;;5053303;28;20099;-51
2021/06/12 01:28:24;;;;;;;5.25;4.75;;;16.30;99.90;;;;;;5052244;28;20025;-50
2021/06/12 01:30:54;;;;;;;4.10;3.70;;;16.30;99.90;;;;;;5053009;28;20021;-47
2021/06/12 01:33:19;;;;;;;5.63;4.47;;;16.40;99.90;;;;;;5053260;28;20025;-47
2021/06/12 01:36:02;;;;;;;4.57;3.92;;;16.40;99.90;;;;;;5045667;28;20025;-49
2021/06/12 01:38:35;;;;;;;8.60;4.22;;;16.40;99.90;;;;;;5033143;28;20064;-46
2021/06/12 01:41:05;;;;;;;5.38;3.53;;;16.40;99.90;;;;;;5033132;28;20040;-50
2021/06/12 01:43:32;;;;;;;5.47;4.20;;;16.40;99.90;;;;;;5030015;28;20531;-50
2021/06/12 01:45:58;;;;;;;4.53;3.10;;;16.40;99.90;;;;;;5032914;28;20033;-47
2021/06/12 01:48:25;;;;;;;5.18;4.68;;;16.40;99.90;;;;;;5032884;28;20414;-50
2021/06/12 01:50:52;;;;;;;5.63;4.07;;;16.40;99.90;;;;;;5032852;28;20076;-47
2021/06/12 01:53:19;;;;;;;4.95;4.45;;;16.50;99.90;;;;;;5033041;28;20069;-52
2021/06/12 01:55:47;;;;;;;6.22;4.55;;;16.60;99.90;;;;;;5032726;28;20017;-50
2021/06/12 01:58:20;;;;;;;10.88;6.30;;;16.60;99.90;;;;;;5031873;28;20025;-45
2021/06/12 02:00:46;;;;;;;4.85;4.07;;;16.70;99.90;;;;;;5032692;28;20392;-51
2021/06/12 02:03:12;;;;;;;5.10;4.40;;;16.70;99.90;;;;;;5033657;28;20021;-49
2021/06/12 02:05:40;;;;;;;4.72;3.78;;;16.70;99.90;;;;;;5052627;28;20041;-45
2021/06/12 02:08:07;;;;;;;6.82;4.97;;;16.70;99.90;;;;;;5052714;28;20024;-47
2021/06/12 02:10:33;;;;;;;4.38;3.97;;;16.80;99.90;;;;;;5052360;28;20032;-49
2021/06/12 02:12:59;;;;;;;7.97;5.38;;;16.80;99.90;;;;;;5050471;28;20036;-48
2021/06/12 02:15:28;;;;;;;5.88;4.57;;;16.90;99.90;;;;;;5052380;28;20488;-46
2021/06/12 02:18:00;;;;;;;5.22;4.53;;;16.90;99.90;;;;;;5051329;28;20021;-47
2021/06/12 02:20:26;;;;;;;4.25;3.85;;;16.90;99.90;;;;;;5052406;28;20398;-48
2021/06/12 02:22:53;;;;;;;4.18;3.65;;;16.90;99.90;;;;;;5051506;28;20091;-47
2021/06/12 02:25:19;;;;;;;3.80;3.40;;;16.90;99.90;;;;;;5051560;28;20057;-50
2021/06/12 02:27:49;;;;;;;4.07;3.67;;;16.90;99.90;;;;;;5051527;28;20107;-49
2021/06/12 02:30:17;;;;;;;4.40;3.22;;;16.90;99.90;;;;;;5051111;28;20040;-51
2021/06/12 02:32:46;;;;;;;3.42;3.13;;;16.90;99.90;;;;;;5052192;28;20399;-52
2021/06/12 02:35:12;;;;;;;3.20;2.88;;;17.00;99.90;;;;;;5049685;28;20021;-47
2021/06/12 02:37:41;;;;;;;4.68;3.88;;;17.00;99.90;;;;;;5031012;28;20581;-47
2021/06/12 02:40:07;;;;;;;3.67;3.35;;;17.00;99.90;;;;;;5032543;28;20100;-48
2021/06/12 02:42:33;;;;;;;5.18;4.10;;;17.00;99.90;;;;;;5031191;28;20465;-46
2021/06/12 02:44:59;;;;;;;6.53;4.72;;;17.00;99.90;;;;;;5032503;28;20060;-49
2021/06/12 02:47:27;;;;;;;4.15;3.75;;;17.00;99.90;;;;;;5031886;28;20033;-46
2021/06/12 02:49:56;;;;;;;4.95;4.32;;;17.10;99.90;;;;;;5032242;28;20036;-53
2021/06/12 02:52:27;;;;;;;4.10;3.70;;;17.10;99.90;;;;;;5031795;28;20246;-47
2021/06/12 02:54:55;;;;;;;6.40;3.60;;;17.10;99.90;;;;;;5032395;28;20014;-47
2021/06/12 02:57:22;;;;;;;3.75;3.45;;;17.10;99.90;;;;;;5031154;28;20025;-51
2021/06/12 02:59:48;;;;;;;4.75;3.10;;;17.20;99.90;;;;;;5032124;28;20095;-48
2021/06/12 03:02:14;;;;;;;3.63;3.33;;;17.20;99.90;;;;;;5031879;28;20384;-50
2021/06/12 03:04:43;;;;;;;4.47;3.92;;;17.20;99.90;;;;;;5046931;28;20024;-47
2021/06/12 03:07:12;;;;;;;4.07;3.65;;;17.20;99.90;;;;;;5050804;28;20036;-46
2021/06/12 03:09:39;;;;;;;5.30;3.65;;;17.20;99.90;;;;;;5051867;28;20075;-48
2021/06/12 03:12:07;;;;;;;3.90;3.45;;;17.30;99.90;;;;;;5051981;28;20021;-45
2021/06/12 03:14:33;;;;;;;7.13;3.10;;;17.30;99.90;;;;;;5051425;28;20029;-47
2021/06/12 03:17:00;;;;;;;3.90;3.42;;;17.30;99.90;;;;;;5051947;28;20053;-46
2021/06/12 03:19:26;;;;;;;3.58;3.28;;;17.30;99.90;;;;;;5051833;28;20040;-49
2021/06/12 03:21:53;;;;;;;3.58;3.00;;;17.30;99.90;;;;;;5051848;28;20037;-48
2021/06/12 03:24:19;;;;;;;5.28;4.22;;;17.40;99.90;;;;;;5051797;28;20033;-47
2021/06/12 03:26:46;;;;;;;4.07;3.70;;;17.50;99.90;;;;;;5051714;28;20021;-48
2021/06/12 03:29:12;;;;;;;9.68;4.53;;;17.50;99.90;;;;;;5051021;28;20518;-50
2021/06/12 03:31:38;;;;;;;7.80;4.57;;;17.50;99.90;;;;;;5051652;28;20029;-48
2021/06/12 03:34:05;;;;;;;4.95;4.45;;;17.60;99.90;;;;;;5054576;28;20024;-45
2021/06/12 03:36:31;;;;;;;4.88;4.30;;;17.60;99.90;;;;;;5041636;28;20543;-51
2021/06/12 03:38:56;;;;;;;7.75;4.35;;;17.60;99.90;;;;;;5035159;28;20072;-47
2021/06/12 03:41:23;;;;;;;5.00;4.07;;;17.70;99.90;;;;;;5035349;28;20029;-50
2021/06/12 03:43:49;;;;;;;5.63;4.80;;;17.70;99.90;;;;;;5034457;28;20040;-48
2021/06/12 03:46:17;;;;;;;5.53;3.95;;;17.70;99.90;;;;;;5035316;28;20029;-49
2021/06/12 03:48:45;;;;;;;5.57;4.45;;;17.80;99.90;;;;;;5035124;28;20044;-52
2021/06/12 03:51:13;;;;;;;5.57;4.18;;;17.80;99.90;;;;;;5035183;28;20084;-48
2021/06/12 03:53:49;;;;;;;4.15;3.42;;;17.80;99.90;;;;;;5035147;28;20030;-50
2021/06/12 03:56:20;;;;;;;4.95;4.20;;;17.90;99.90;;;;;;5035152;28;20116;-49
2021/06/12 03:58:47;;;;;;;4.93;4.05;;;17.90;99.90;;;;;;5034129;28;20033;-49
2021/06/12 04:01:17;;;;;;;5.63;4.55;;;17.90;99.90;;;;;;5034889;28;20484;-48
2021/06/12 04:03:44;;;;;;;5.57;4.75;;;18.00;99.90;;;;;;5041966;28;20029;-46
2021/06/12 04:06:10;;;;;;;6.30;4.88;;;18.10;99.90;;;;;;5054729;28;20472;-45
2021/06/12 04:08:36;;;;;;;4.78;4.05;;;18.20;99.90;;;;;;5054854;28;20049;-47
2021/06/12 04:11:01;;;;;;;5.47;4.78;;;18.20;99.90;;;;;;5054670;28;20151;-50
2021/06/12 04:13:27;;;;;;;7.95;4.25;;;18.30;99.90;;;;;;5043208;28;20052;-49
2021/06/12 04:15:52;;;;;;;6.70;4.40;;;18.30;99.90;;;;;;5017503;28;20053;-48
2021/06/12 04:18:18;;;;;;;4.93;4.18;;;18.40;99.90;;;;;;5042009;28;20036;-47
2021/06/12 04:20:44;;;;;;;4.15;3.75;;;18.50;99.90;;;;;;5032691;28;20045;-47
2021/06/12 04:23:09;;;;;;;7.13;3.92;;;18.50;99.90;;;;;;5036799;28;20437;-47
2021/06/12 04:25:35;;;;;;;5.80;3.85;;;18.50;99.90;;;;;;5031678;28;20025;-47
2021/06/12 04:28:01;;;;;;;4.13;3.60;;;18.60;99.90;;;;;;5034213;28;20523;-49
2021/06/12 04:30:27;;;;;;;4.43;3.58;;;18.60;99.90;;;;;;5041079;28;20034;-51
2021/06/12 04:32:52;;;;;;;3.67;3.33;;;18.70;99.90;;;;;;5032504;28;20029;-46
2021/06/12 04:35:18;;;;;;;5.75;3.35;;;18.70;99.90;;;;;;5032373;28;20060;-47
2021/06/12 04:37:44;;;;;;;4.10;3.15;;;18.80;99.90;;;;;;5032555;28;20029;-48
2021/06/12 04:40:12;;;;;;;3.92;3.55;;;18.90;99.90;;;;;;5033622;28;20033;-49
2021/06/12 04:42:39;;;;;;;4.10;3.00;;;19.00;99.90;;;;;;5029381;28;20437;-46
2021/06/12 04:45:06;;;;;;;4.35;3.67;;;19.10;99.90;;;;;;5033429;28;20045;-55
2021/06/12 04:47:32;;;;;;;4.57;3.05;;;19.30;99.90;;;;;;5034116;28;20049;-53
2021/06/12 04:49:58;;;;;;;3.17;2.38;;;19.30;99.90;;;;;;5033740;28;20049;-51
2021/06/12 04:52:23;;;;;;;3.88;2.55;;;19.50;99.90;;;;;;5034068;28;20043;-48
2021/06/12 04:54:51;;;;;;;3.72;3.15;;;19.50;99.90;;;;;;5033948;28;20100;-50
2021/06/12 04:57:17;;;;;;;5.22;3.13;;;19.70;99.90;;;;;;5033026;28;20057;-49
2021/06/12 04:59:42;;;;;;;4.13;3.25;;;19.80;99.90;;;;;;5033920;28;20143;-51
2021/06/12 05:02:08;;;;;;;2.88;2.60;;;19.90;99.90;;;;;;5033398;28;20453;-47
2021/06/12 05:04:33;;;;;;;3.25;2.92;;;20.10;99.90;;;;;;5047871;28;20033;-53
2021/06/12 05:06:59;;;;;;;2.10;1.92;;;20.40;99.90;;;;;;5053484;28;20078;-51
2021/06/12 05:09:24;;;;;;;3.03;2.10;;;20.60;99.90;;;;;;5053828;28;20021;-49
2021/06/12 05:11:50;;;;;;;2.88;2.53;;;20.90;99.90;;;;;;5050535;28;20033;-55
2021/06/12 05:14:17;;;;;;;5.18;2.47;;;21.10;99.90;;;;;;5031434;28;20021;-53
2021/06/12 05:16:42;;;;;;;4.00;2.47;;;21.30;99.90;;;;;;5033363;28;20049;-50
2021/06/12 05:19:08;;;;;;;2.70;2.50;;;21.60;99.90;;;;;;5033280;28;20115;-52
2021/06/12 05:21:36;;;;;;;3.17;2.50;;;21.80;99.90;;;;;;5033465;28;20029;-52
2021/06/12 05:24:03;;;;;;;3.30;2.67;;;22.00;99.50;;;;;;5033105;28;20037;-51
2021/06/12 05:26:28;;;;;;;3.72;2.35;;;22.30;98.30;;;;;;5032910;28;20054;-50
2021/06/12 05:28:54;;;;;;;2.65;2.45;;;22.60;96.80;;;;;;5032233;28;20026;-51
2021/06/12 05:31:19;;;;;;;2.90;2.42;;;23.00;95.70;;;;;;5033286;28;20029;-49
2021/06/12 05:33:45;;;;;;;2.50;2.30;;;23.30;94.40;;;;;;5032613;28;20428;-50
2021/06/12 05:36:10;;;;;;;2.53;2.33;;;23.70;92.50;;;;;;5032828;28;20087;-50
2021/06/12 05:38:36;;;;;;;3.05;2.75;;;24.40;91.20;;;;;;5032857;28;20033;-49
2021/06/12 05:41:02;;;;;;;2.72;2.50;;;25.00;89.20;;;;;;5032948;28;20112;-52
2021/06/12 05:43:28;;;;;;;2.80;2.60;;;25.30;85.90;;;;;;5032000;28;20117;-50
2021/06/12 05:45:53;;;;;;;2.60;2.40;;;26.00;83.90;;;;;;5032609;28;20043;-49
2021/06/12 05:48:19;;;;;;;2.63;2.42;;;26.60;81.10;;;;;;5032712;28;20026;-49
2021/06/12 05:50:44;;;;;;;2.50;2.30;;;27.20;78.70;;;;;;5032595;28;20026;-49
2021/06/12 05:53:10;;;;;;;2.92;2.72;;;27.70;76.50;;;;;;5032557;28;20022;-51
2021/06/12 05:55:36;;;;;;;3.05;2.25;;;27.90;75.20;;;;;;5028836;28;20121;-51
2021/06/12 05:58:01;;;;;;;2.63;2.42;;;27.80;74.40;;;;;;5030676;28;20026;-45
2021/06/12 06:00:27;;;;;;;2.38;2.17;;;27.80;73.60;;;;;;5032422;28;20057;-45
2021/06/12 06:02:53;;;;;;;2.25;1.92;;;27.70;73.40;;;;;;5032485;28;20526;-50
2021/06/12 06:05:18;;;;;;;2.60;2.40;;;27.50;73.10;;;;;;5052488;28;20064;-46
2021/06/12 06:07:44;;;;;;;3.50;2.30;;;27.20;72.80;;;;;;5052239;28;20031;-48
2021/06/12 06:10:10;;;;;;;2.40;2.20;;;26.90;73.40;;;;;;5052379;28;20118;-46
2021/06/12 06:12:35;;;;;;;4.03;2.40;;;26.60;73.50;;;;;;5051367;28;20033;-47
2021/06/12 06:15:02;;;;;;;2.47;2.22;;;26.30;73.40;;;;;;5052506;28;20025;-52
2021/06/12 06:17:27;;;;;;;3.67;2.05;;;25.90;73.70;;;;;;5052152;28;20021;-44
2021/06/12 06:19:53;;;;;;;2.42;2.20;;;25.70;74.20;;;;;;5052355;28;20120;-45
2021/06/12 06:22:18;;;;;;;2.00;1.90;;;25.50;74.30;;;;;;5051894;28;20021;-45
2021/06/12 06:24:44;;;;;;;5.53;1.88;;;25.30;74.80;;;;;;5052424;28;20112;-45
2021/06/12 06:27:10;;;;;;;2.45;2.10;;;25.20;75.70;;;;;;5051550;28;20029;-46
2021/06/12 06:29:35;;;;;;;2.40;1.85;;;25.10;74.90;;;;;;5052280;28;20061;-49
2021/06/12 06:32:01;;;;;;;2.97;1.95;;;24.90;75.20;;;;;;5052098;28;20113;-51
2021/06/12 06:34:26;;;;;;;3.33;2.30;;;24.70;75.50;;;;;;5052358;28;20025;-47
2021/06/12 06:36:52;;;;;;;4.22;1.75;;;24.50;75.30;;;;;;5035682;28;20026;-49
2021/06/12 06:39:17;;;;;;;2.08;1.67;;;24.30;75.40;;;;;;5032009;28;20133;-48
2021/06/12 06:41:43;;;;;;;4.90;2.00;;;24.00;76.00;;;;;;5032212;28;20048;-46
2021/06/12 06:44:08;;;;;;;2.35;2.10;;;23.80;77.00;;;;;;5031375;28;20029;-47
2021/06/12 06:46:34;;;;;;;5.13;2.10;;;23.60;76.80;;;;;;5032217;28;20097;-49
2021/06/12 06:48:59;;;;;;;2.67;2.13;;;23.50;77.20;;;;;;5032141;28;20226;-49
2021/06/12 06:51:25;;;;;;;4.20;2.10;;;23.40;77.50;;;;;;5032271;28;20101;-46
2021/06/12 06:53:50;;;;;;;3.42;2.20;;;23.40;77.80;;;;;;5031968;28;20018;-46
2021/06/12 06:56:16;;;;;;;6.35;2.35;;;23.30;78.10;;;;;;5032237;28;20021;-47
2021/06/12 06:58:41;;;;;;;6.25;2.33;;;23.20;78.40;;;;;;5031304;28;20469;-50
2021/06/12 07:01:07;;;;;;;4.30;2.60;;;23.20;78.40;;;;;;5022847;28;20045;-47
2021/06/12 07:03:32;;;;;;;3.00;2.13;;;23.20;78.30;;;;;;5022793;28;20392;-45
2021/06/12 07:05:58;;;;;;;3.03;2.20;;;23.30;78.20;;;;;;5051937;28;20037;-47
2021/06/12 07:08:23;;;;;;;2.92;2.45;;;23.40;77.90;;;;;;5015957;28;20080;-49
2021/06/12 07:10:49;;;;;;;2.80;2.40;;;23.50;77.50;;;;;;5016186;28;20112;-45
2021/06/12 07:13:23;;;;;;;2.33;1.92;;;23.60;77.00;;;;;;5014769;28;20026;-46
2021/06/12 07:15:50;;;;;;;2.35;2.15;;;23.60;76.20;;;;;;5015818;28;20169;-50
2021/06/12 07:18:16;;;;;;;3.92;2.10;;;23.50;77.00;;;;;;5015694;28;20354;-46
2021/06/12 07:20:45;;;;;;;3.13;2.30;;;23.50;76.40;;;;;;5021341;28;20029;-47
2021/06/12 07:23:12;;;;;;;3.42;2.03;;;23.60;76.10;;;;;;5034840;28;20108;-50
2021/06/12 07:25:37;;;;;;;2.67;2.17;;;23.70;75.80;;;;;;5035799;28;20101;-50
2021/06/12 07:28:03;;;;;;;3.25;2.22;;;23.80;75.50;;;;;;5033875;28;20133;-46
2021/06/12 07:30:30;;;;;;;3.15;2.55;;;24.10;74.80;;;;;;5034967;28;20075;-49
2021/06/12 07:32:56;;;;;;;2.30;2.10;;;24.40;74.10;;;;;;5035093;28;20030;-52
2021/06/12 07:35:22;;;;;;;5.55;2.53;;;24.70;73.30;;;;;;5049671;28;20014;-49
2021/06/12 07:37:50;;;;;;;5.70;2.92;;;24.80;73.20;;;;;;5033070;28;20033;-47
2021/06/12 07:40:16;;;;;;;6.20;2.97;;;24.70;73.20;;;;;;5034251;28;20032;-47
2021/06/12 07:42:42;;;;;;;2.60;2.28;;;24.60;73.40;;;;;;5034388;28;20022;-48
2021/06/12 07:45:08;;;;;;;4.28;2.53;;;24.40;73.60;;;;;;5034460;28;20040;-51
2021/06/12 07:47:33;;;;;;;5.75;2.97;;;24.20;74.10;;;;;;5035177;28;20464;-46
2021/06/12 07:49:59;;;;;;;4.35;2.63;;;24.00;74.40;;;;;;5029504;28;20037;-44
2021/06/12 07:52:24;;;;;;;2.70;2.38;;;24.00;74.80;;;;;;5015203;28;20060;-46
2021/06/12 07:54:50;;;;;;;2.55;2.35;;;23.90;74.90;;;;;;5028477;28;20373;-47
2021/06/12 07:57:15;;;;;;;3.25;2.95;;;23.80;75.00;;;;;;5031285;28;20033;-48
2021/06/12 07:59:41;;;;;;;2.83;2.20;;;23.70;75.00;;;;;;5034309;28;20453;-46
2021/06/12 08:02:07;;;;;;;2.63;2.28;;;23.60;75.50;;;;;;5034188;28;20037;-47
2021/06/12 08:04:32;;;;;;;3.22;2.22;;;23.40;75.70;;;;;;5036739;28;20025;-48
2021/06/12 08:06:58;;;;;;;2.83;2.30;;;23.40;76.00;;;;;;5034575;28;20112;-51
2021/06/12 08:09:25;;;;;;;4.40;2.63;;;23.40;76.20;;;;;;5034727;28;20052;-51
2021/06/12 08:11:51;;;;;;;5.03;2.40;;;23.40;76.10;;;;;;5035021;28;20021;-49
2021/06/12 08:14:16;;;;;;;3.38;2.47;;;23.40;76.00;;;;;;5033478;28;20479;-50
2021/06/12 08:16:42;;;;;;;2.58;2.35;;;23.50;75.70;;;;;;5034774;28;20026;-48
2021/06/12 08:19:07;;;;;;;4.53;2.42;;;23.70;75.50;;;;;;5033643;28;20017;-52
2021/06/12 08:21:35;;;;;;;3.92;2.42;;;23.70;75.20;;;;;;5034481;28;20037;-50
2021/06/12 08:24:00;;;;;;;3.40;2.58;;;23.80;75.30;;;;;;5034050;28;20029;-49
2021/06/12 08:26:26;;;;;;;3.28;2.97;;;23.80;75.20;;;;;;5034474;28;20488;-48
2021/06/12 08:28:53;;;;;;;2.70;2.50;;;23.80;75.10;;;;;;5033453;28;20037;-48
2021/06/12 08:31:19;;;;;;;3.40;2.63;;;23.70;75.20;;;;;;5034453;28;20025;-54
2021/06/12 08:33:45;;;;;;;2.75;2.53;;;23.70;75.30;;;;;;5034420;28;20030;-48
2021/06/12 08:36:11;;;;;;;4.00;2.50;;;23.70;75.20;;;;;;5033724;28;20021;-47
2021/06/12 08:38:36;;;;;;;4.07;2.72;;;23.70;75.20;;;;;;5034301;28;20464;-49
2021/06/12 08:41:03;;;;;;;2.97;2.47;;;23.70;75.10;;;;;;5021738;28;20053;-50
2021/06/12 08:43:30;;;;;;;4.05;3.10;;;23.80;75.00;;;;;;5023448;28;20033;-46
2021/06/12 08:45:57;;;;;;;4.88;3.33;;;23.90;74.90;;;;;;5025065;28;20418;-50
2021/06/12 08:48:23;;;;;;;3.03;2.53;;;23.80;74.80;;;;;;5030143;28;20523;-46
2021/06/12 08:50:49;;;;;;;3.05;2.60;;;23.90;74.80;;;;;;5029761;28;20040;-46
2021/06/12 08:53:15;;;;;;;3.45;2.53;;;24.10;74.60;;;;;;5032813;28;20374;-51
2021/06/12 08:55:42;;;;;;;3.08;2.70;;;24.30;74.20;;;;;;5032070;28;20071;-46
2021/06/12 08:58:08;;;;;;;4.20;2.80;;;24.50;73.70;;;;;;5033021;28;20028;-46
2021/06/12 09:00:34;;;;;;;2.75;2.28;;;24.60;73.20;;;;;;5035445;28;20045;-46
2021/06/12 09:03:23;;;;;;;2.95;2.72;;;24.80;72.90;;;;;;5033002;28;20033;-48
2021/06/12 09:05:55;;;;;;;3.10;2.72;;;25.00;71.90;;;;;;5041437;28;20033;-46
2021/06/12 09:08:25;;;;;;;2.75;2.28;;;25.10;71.90;;;;;;5029532;28;20085;-46
2021/06/12 09:10:57;;;;;;;5.05;2.92;;;25.30;71.50;;;;;;5031116;28;20124;-50
2021/06/12 09:13:57;;;;;;;3.38;2.70;;;25.50;71.00;;;;;;5031709;28;20022;-49
2021/06/12 09:16:37;;;;;;;4.05;3.50;;;25.70;69.10;;;;;;5022151;28;20026;-48
2021/06/12 09:19:14;;;;;;;4.35;2.80;;;25.80;69.10;;;;;;5032335;28;20064;-47
2021/06/12 09:21:42;;;;;;;6.30;3.45;;;25.80;69.50;;;;;;5032477;28;20036;-46
2021/06/12 09:24:23;;;;;;;3.65;2.65;;;25.90;69.30;;;;;;5032967;28;20071;-44
2021/06/12 09:27:02;;;;;;;3.00;2.70;;;25.90;68.90;;;;;;5037021;28;20033;-46
2021/06/12 09:29:39;;;;;;;3.90;3.13;;;25.80;68.60;;;;;;5034259;28;20403;-51
2021/06/12 09:32:22;;;;;;;4.68;3.08;;;25.50;68.90;;;;;;5041767;28;20111;-49
2021/06/12 09:34:52;;;;;;;4.85;3.38;;;25.20;69.20;;;;;;5032342;28;20358;-47
2021/06/12 09:37:20;;;;;;;3.90;2.63;;;24.80;70.80;;;;;;5029295;28;20032;-46
2021/06/12 09:40:16;;;;;;;4.43;3.08;;;24.40;71.50;;;;;;5031047;28;20064;-48
2021/06/12 09:42:55;;;;;;;3.58;2.97;;;24.10;72.10;;;;;;5026621;28;20450;-48
2021/06/12 09:45:32;;;;;;;3.53;3.22;;;23.80;72.90;;;;;;5031745;28;20041;-51
2021/06/12 09:48:17;;;;;;;10.68;4.45;;;23.60;74.20;;;;;;5015440;28;20029;-49
2021/06/12 09:50:46;;;;;;;4.28;3.88;;;23.30;75.80;;;;;;5028606;28;20041;-51
2021/06/12 09:53:37;;;;;;;4.30;3.70;;;23.10;76.80;;;;;;5031067;28;20049;-45
2021/06/12 09:56:09;;;;;;;4.03;3.17;;;22.90;79.50;;;;;;5025985;28;20030;-45
2021/06/12 09:58:35;;;;;;;5.55;3.72;;;22.60;80.40;;;;;;5029998;28;20025;-46
2021/06/12 10:01:08;;;;;;;5.25;4.15;;;22.40;81.70;;;;;;5028572;28;20106;-47
2021/06/12 10:03:35;;;;;;;5.07;4.30;;;22.20;84.50;;;;;;5024309;28;20029;-52
2021/06/12 10:06:23;;;;;;;6.97;4.50;;;22.00;85.90;;;;;;5029042;28;20029;-51
2021/06/12 10:08:50;;;;;;;5.72;4.43;;;21.80;90.70;;;;;;5029338;28;20945;-48
2021/06/12 10:11:19;;;;;;;5.18;3.92;;;21.70;90.20;;;;;;5024559;28;20112;-48
2021/06/12 10:13:47;;;;;;;3.97;3.47;;;21.50;91.00;;;;;;5023680;28;20075;-51
2021/06/12 10:16:13;;;;;;;3.58;3.28;;;21.40;92.20;;;;;;5046430;28;20021;-47
2021/06/12 10:18:43;;;;;;;4.50;3.47;;;21.40;92.50;;;;;;5044664;28;20040;-48
2021/06/12 10:21:10;;;;;;;4.20;3.10;;;21.30;92.90;;;;;;5030494;28;20033;-48
2021/06/12 10:23:38;;;;;;;4.15;3.78;;;21.30;93.50;;;;;;5030668;28;20032;-49
2021/06/12 10:26:07;;;;;;;5.00;3.00;;;21.40;94.30;;;;;;5033682;28;20070;-46
2021/06/12 10:28:34;;;;;;;5.47;4.28;;;21.40;94.40;;;;;;5047263;28;20826;-45
2021/06/12 10:31:05;;;;;;;5.22;3.83;;;21.40;95.00;;;;;;5033942;28;20139;-50
2021/06/12 10:33:32;;;;;;;7.43;4.28;;;21.30;95.20;;;;;;5049029;28;20114;-47
2021/06/12 10:36:20;;;;;;;5.15;3.90;;;21.30;95.50;;;;;;5030547;28;20087;-47
2021/06/12 10:38:47;;;;;;;5.32;4.80;;;21.40;96.30;;;;;;5028427;28;20087;-49
2021/06/12 10:41:28;;;;;;;6.95;4.10;;;21.50;95.80;;;;;;5029800;28;20037;-50
2021/06/12 10:44:02;;;;;;;5.38;4.22;;;21.70;96.70;;;;;;5030026;28;20042;-49
2021/06/12 10:46:33;;;;;;;6.22;4.47;;;22.00;97.30;;;;;;5033938;28;20033;-50
2021/06/12 10:49:00;;;;;;;5.15;4.50;;;22.20;95.10;;;;;;5034249;28;20041;-48
2021/06/12 10:51:26;;;;;;;6.25;4.78;;;22.40;94.70;;;;;;5034124;28;20033;-47
2021/06/12 10:54:10;;;;;;;4.75;4.25;;;22.50;94.40;;;;;;5051391;28;20021;-46
2021/06/12 10:56:44;;;;;;;9.25;5.78;;;22.70;95.20;;;;;;5028381;28;20032;-46
2021/06/12 10:59:12;;;;;;;8.88;5.85;;;22.90;93.70;;;;;;5020106;28;20033;-49
2021/06/12 11:01:59;;;;;;;6.90;4.88;;;23.30;92.80;;;;;;5048006;28;20056;-49
2021/06/12 11:04:51;;;;;;;6.05;5.45;;;23.80;92.00;;;;;;5031237;28;20089;-46
2021/06/12 11:07:24;;;;;;;5.38;4.78;;;24.20;90.90;;;;;;5024329;28;20032;-47
2021/06/12 11:09:50;;;;;;;10.57;6.93;;;24.60;89.10;;;;;;5038302;28;20024;-46
2021/06/12 11:12:16;;;;;;;6.07;5.47;;;25.00;87.00;;;;;;5053031;28;20492;-51
2021/06/12 11:14:58;;;;;;;7.18;6.47;;;25.40;84.90;;;;;;5048175;28;20029;-49
2021/06/12 11:17:24;;;;;;;7.38;5.97;;;25.60;81.80;;;;;;5027047;28;20109;-51
2021/06/12 11:19:56;;;;;;;9.32;6.65;;;25.80;80.70;;;;;;5053590;28;20059;-45
2021/06/12 11:22:37;;;;;;;7.05;6.32;;;25.80;78.00;;;;;;5035708;28;20442;-50
2021/06/12 11:25:12;;;;;;;7.72;5.13;;;25.80;77.30;;;;;;5022862;28;20030;-47
2021/06/12 11:28:01;;;;;;;8.20;6.43;;;26.00;77.10;;;;;;5033131;28;20068;-48
2021/06/12 11:30:27;;;;;;;5.57;4.97;;;26.10;77.00;;;;;;5012433;28;20061;-48
2021/06/12 11:32:55;;;;;;;6.95;6.03;;;26.20;75.80;;;;;;5033169;28;20053;-46
2021/06/12 11:35:59;;;;;;;6.90;5.65;;;26.10;73.60;;;;;;5042154;28;20022;-48
2021/06/12 11:38:32;;;;;;;5.78;5.22;;;26.00;72.80;;;;;;5024910;28;20473;-49
2021/06/12 11:41:11;;;;;;;7.63;4.50;;;25.90;73.70;;;;;;5033475;28;20041;-44
2021/06/12 11:43:44;;;;;;;5.25;4.70;;;25.90;73.50;;;;;;5032193;28;20488;-48
2021/06/12 11:46:19;;;;;;;5.80;4.88;;;26.00;73.30;;;;;;5031905;28;20048;-51
2021/06/12 11:48:47;;;;;;;5.15;4.65;;;26.00;71.70;;;;;;5019475;28;20136;-49
2021/06/12 11:51:17;;;;;;;4.43;4.03;;;26.20;72.10;;;;;;5025350;28;20108;-48
2021/06/12 11:54:21;;;;;;;6.25;4.57;;;26.30;71.70;;;;;;5028229;28;20041;-44
2021/06/12 11:56:50;;;;;;;4.75;4.25;;;26.40;70.00;;;;;;5047479;28;20112;-50
2021/06/12 11:59:20;;;;;;;7.10;4.32;;;26.30;70.90;;;;;;5043000;28;20388;-49
2021/06/12 12:01:47;;;;;;;4.68;3.55;;;26.30;70.40;;;;;;5034036;28;20076;-47
2021/06/12 12:04:16;;;;;;;4.65;4.13;;;26.50;70.70;;;;;;5032609;28;20058;-46
2021/06/12 12:06:46;;;;;;;4.80;3.58;;;26.70;70.10;;;;;;5051436;28;20052;-49
2021/06/12 12:09:22;;;;;;;5.55;3.88;;;26.70;68.00;;;;;;5053271;28;20025;-50
2021/06/12 12:11:59;;;;;;;6.43;3.17;;;26.50;66.60;;;;;;5052960;28;20091;-44
2021/06/12 12:14:38;;;;;;;3.17;2.70;;;26.20;68.10;;;;;;5052277;28;20071;-44
2021/06/12 12:17:05;;;;;;;3.25;2.67;;;25.80;68.70;;;;;;5052900;28;20021;-50
2021/06/12 12:19:31;;;;;;;5.10;3.50;;;25.30;69.20;;;;;;5052559;28;20060;-48
2021/06/12 12:22:02;;;;;;;3.20;2.78;;;25.00;70.10;;;;;;5052843;28;20425;-46
2021/06/12 12:24:32;;;;;;;3.80;3.40;;;24.70;70.80;;;;;;5052508;28;20052;-49
2021/06/12 12:27:01;;;;;;;4.65;3.28;;;24.40;71.40;;;;;;5051823;28;20017;-45
2021/06/12 12:29:29;;;;;;;4.03;3.40;;;24.30;71.70;;;;;;5052624;28;20484;-46
2021/06/12 12:31:56;;;;;;;3.90;3.55;;;24.10;72.20;;;;;;5048988;28;20052;-46
2021/06/12 12:34:36;;;;;;;4.18;3.58;;;23.60;72.30;;;;;;5022645;28;20034;-50
2021/06/12 12:37:02;;;;;;;4.25;3.08;;;22.90;76.90;;;;;;5032545;28;20052;-49
2021/06/12 12:39:43;;;;;;;5.95;3.45;;;22.00;80.70;;;;;;5032620;28;20025;-47
2021/06/12 12:42:19;;;;;;;5.90;2.75;;;21.20;87.40;;;;;;5031545;28;20133;-50
2021/06/12 12:44:48;;;;;;;3.97;2.50;;;20.70;91.70;;;;;;5033254;28;20021;-46
2021/06/12 12:47:18;;;;;;;2.35;1.88;;;20.40;93.70;;;;;;5027128;28;20366;-48
2021/06/12 12:49:44;;;;;;;4.15;2.10;;;20.10;95.10;;;;;;5045024;28;20531;-50
2021/06/12 12:52:27;;;;;;;2.95;1.85;;;20.00;97.40;;;;;;5053097;28;20029;-43
2021/06/12 12:55:12;;;;;;;2.10;1.90;;;20.20;97.90;;;;;;5052961;28;20036;-49